Time;durP1;ratioP1;P1;durP2;ratioP2;P2;SDS_P1;SDS_P2;PMS_P1;PMS_P2;Temp;Humidity;BMP_temperature;BMP_pressure;BME280_temperature;BME280_humidity;BME280_pressure;Samples;Min_cycle;Max_cycle;Signal;HPM_P1;HPM_P2
2021/12/01 00:00:29;;;;;;;30.73;18.30;;;9.00;99.90;;;;;;4942904;29;20904;-59
2021/12/01 00:02:56;;;;;;;22.67;16.23;;;9.00;99.90;;;;;;4942738;29;20208;-59
2021/12/01 00:05:26;;;;;;;23.97;16.93;;;9.00;99.90;;;;;;4941957;29;20243;-60
2021/12/01 00:07:54;;;;;;;26.63;17.50;;;9.00;99.90;;;;;;4923880;29;20229;-60
2021/12/01 00:10:23;;;;;;;25.57;17.57;;;9.00;99.90;;;;;;4940708;29;20671;-60
2021/12/01 00:12:50;;;;;;;21.43;15.50;;;9.10;99.90;;;;;;4940150;29;20230;-60
2021/12/01 00:15:19;;;;;;;17.80;13.70;;;9.10;99.90;;;;;;4920082;29;20313;-60
2021/12/01 00:17:46;;;;;;;17.00;12.57;;;9.10;99.90;;;;;;4921779;29;20203;-60
2021/12/01 00:20:17;;;;;;;19.67;12.93;;;9.10;99.90;;;;;;4917024;29;20258;-60
2021/12/01 00:22:44;;;;;;;17.97;13.10;;;9.00;99.90;;;;;;4931993;29;20683;-60
2021/12/01 00:25:14;;;;;;;16.57;11.43;;;9.10;99.90;;;;;;4939294;29;20582;-60
2021/12/01 00:27:42;;;;;;;12.30;8.93;;;9.00;99.90;;;;;;4939737;28;20194;-60
2021/12/01 00:30:10;;;;;;;13.40;9.47;;;9.10;99.90;;;;;;4925424;29;20199;-60
2021/12/01 00:32:37;;;;;;;9.60;7.63;;;9.10;99.90;;;;;;4909946;29;20225;-60
2021/12/01 00:35:06;;;;;;;8.40;6.93;;;9.00;99.90;;;;;;4929432;29;20672;-60
2021/12/01 00:37:33;;;;;;;8.37;6.40;;;9.10;99.90;;;;;;4940442;29;20282;-60
2021/12/01 00:40:00;;;;;;;5.87;5.27;;;9.10;99.90;;;;;;4939767;29;20208;-60
2021/12/01 00:42:27;;;;;;;7.97;5.73;;;9.10;99.90;;;;;;4940952;29;20211;-60
2021/12/01 00:45:00;;;;;;;5.40;4.80;;;9.00;99.90;;;;;;4930180;29;20211;-60
2021/12/01 00:47:41;;;;;;;5.80;4.50;;;9.10;99.90;;;;;;4924410;29;20203;-60
2021/12/01 00:50:11;;;;;;;3.80;3.30;;;9.00;99.90;;;;;;4941497;29;20676;-60
2021/12/01 00:52:38;;;;;;;4.53;3.60;;;9.10;99.90;;;;;;4930976;29;20261;-60
2021/12/01 00:55:06;;;;;;;3.20;2.90;;;9.00;96.30;;;;;;4923323;29;20329;-60
2021/12/01 00:57:33;;;;;;;2.27;2.07;;;9.10;1.00;;;;;;4940972;29;20226;-60
2021/12/01 01:00:03;;;;;;;2.30;2.10;;;9.10;1.00;;;;;;4923338;29;20251;-60
2021/12/01 01:02:30;;;;;;;2.23;2.03;;;9.00;99.90;;;;;;4938219;29;20224;-60
2021/12/01 01:04:58;;;;;;;2.90;2.23;;;9.10;99.90;;;;;;4913106;29;20298;-60
2021/12/01 01:07:25;;;;;;;5.27;2.37;;;9.10;99.90;;;;;;4939787;29;20242;-60
2021/12/01 01:09:52;;;;;;;2.60;2.40;;;9.10;1.00;;;;;;4939055;29;20282;-60
2021/12/01 01:18:02;;;;;;;4.27;2.73;;;9.00;99.90;;;;;;4941447;29;20211;-60
2021/12/01 01:20:29;;;;;;;2.73;2.50;;;9.10;16.20;;;;;;4923945;29;20266;-60
2021/12/01 01:22:56;;;;;;;2.60;2.40;;;9.10;1.00;;;;;;4937519;29;20701;-60
2021/12/01 01:25:24;;;;;;;2.70;2.50;;;9.10;1.00;;;;;;4930862;29;20192;-60
2021/12/01 01:27:51;;;;;;;2.90;2.60;;;9.10;99.90;;;;;;4927528;29;20235;-61
2021/12/01 01:30:18;;;;;;;2.90;2.43;;;9.00;12.80;;;;;;4939811;29;20651;-60
2021/12/01 01:32:45;;;;;;;6.20;2.50;;;9.10;1.00;;;;;;4939396;29;20589;-60
2021/12/01 01:35:15;;;;;;;2.97;2.60;;;9.00;1.00;;;;;;4923280;29;20213;-60
2021/12/01 01:37:42;;;;;;;2.70;2.50;;;9.10;1.00;;;;;;4940960;29;20285;-60
2021/12/01 01:40:10;;;;;;;2.50;2.30;;;9.10;99.90;;;;;;4923117;29;20234;-60
2021/12/01 01:42:37;;;;;;;2.97;2.57;;;9.10;99.90;;;;;;4939506;29;20707;-60
2021/12/01 01:45:05;;;;;;;2.60;2.40;;;9.00;99.90;;;;;;4923488;29;20990;-61
2021/12/01 01:47:32;;;;;;;3.93;2.70;;;9.10;99.90;;;;;;4941640;28;20214;-60
2021/12/01 01:52:27;;;;;;;3.10;2.50;;;9.10;1.00;;;;;;4943356;29;20695;-60
2021/12/01 01:54:56;;;;;;;2.57;2.37;;;9.10;1.00;;;;;;4924201;29;20211;-60
2021/12/01 01:57:23;;;;;;;3.50;3.17;;;9.10;1.00;;;;;;4941349;29;20573;-60
2021/12/01 01:59:50;;;;;;;3.50;3.20;;;9.00;1.00;;;;;;4941073;29;20201;-60
2021/12/01 02:02:18;;;;;;;5.17;4.27;;;9.10;99.90;;;;;;4931300;29;20223;-60
2021/12/01 02:04:45;;;;;;;6.30;5.33;;;9.10;99.90;;;;;;4940714;29;20237;-60
2021/12/01 02:07:12;;;;;;;3.50;3.20;;;9.10;99.90;;;;;;4944290;29;20195;-60
2021/12/01 02:09:39;;;;;;;4.80;4.30;;;9.10;99.90;;;;;;4942852;29;20191;-60
2021/12/01 02:12:06;;;;;;;4.00;3.13;;;9.10;99.90;;;;;;4924615;29;20580;-61
2021/12/01 02:14:33;;;;;;;3.27;2.70;;;9.10;94.00;;;;;;4942580;29;20611;-60
2021/12/01 02:17:00;;;;;;;2.97;2.67;;;9.00;99.90;;;;;;4930003;29;20298;-60
2021/12/01 02:19:28;;;;;;;2.83;2.60;;;9.10;39.60;;;;;;4926819;29;20227;-60
2021/12/01 02:21:55;;;;;;;2.70;2.50;;;9.10;99.90;;;;;;4944186;29;20262;-59
2021/12/01 02:24:24;;;;;;;2.50;2.30;;;9.00;99.90;;;;;;4942167;29;20196;-60
2021/12/01 02:26:51;;;;;;;2.50;2.30;;;9.10;9.90;;;;;;4936053;28;20372;-60
2021/12/01 02:29:25;;;;;;;2.33;2.10;;;9.00;1.00;;;;;;4916278;29;20222;-60
2021/12/01 02:31:53;;;;;;;2.70;2.50;;;9.00;1.00;;;;;;4930776;29;20188;-60
2021/12/01 02:34:23;;;;;;;2.70;2.50;;;9.10;1.00;;;;;;4925286;29;20684;-60
2021/12/01 02:36:56;;;;;;;4.40;2.80;;;9.10;1.00;;;;;;4930505;29;20251;-60
2021/12/01 02:39:24;;;;;;;2.63;2.43;;;9.10;99.90;;;;;;4942838;29;20621;-60
2021/12/01 02:41:53;;;;;;;3.27;2.53;;;9.20;99.90;;;;;;4942599;29;20198;-60
2021/12/01 02:44:21;;;;;;;3.30;2.30;;;9.10;99.90;;;;;;4941708;29;20651;-59
2021/12/01 02:46:48;;;;;;;2.90;2.40;;;9.10;99.90;;;;;;4941496;29;20199;-60
2021/12/01 02:49:20;;;;;;;2.60;2.40;;;9.10;99.90;;;;;;4942480;29;20247;-60
2021/12/01 02:51:49;;;;;;;2.20;2.00;;;9.20;99.90;;;;;;4942958;29;20716;-60
2021/12/01 02:54:16;;;;;;;2.47;1.90;;;9.10;99.90;;;;;;4943015;29;20195;-60
2021/12/01 02:56:48;;;;;;;2.10;1.90;;;9.20;99.90;;;;;;4941229;29;20651;-60
2021/12/01 02:59:16;;;;;;;3.43;1.80;;;9.30;1.00;;;;;;4942735;29;20379;-60
2021/12/01 03:01:44;;;;;;;2.53;1.90;;;9.20;1.00;;;;;;4941777;29;20274;-60
2021/12/01 03:04:13;;;;;;;1.80;1.70;;;9.20;1.00;;;;;;4943591;29;20785;-60
2021/12/01 03:06:44;;;;;;;2.47;1.60;;;9.20;1.00;;;;;;4940771;29;20583;-60
2021/12/01 03:09:12;;;;;;;2.53;1.87;;;9.20;46.30;;;;;;4924565;29;20199;-60
2021/12/01 03:11:40;;;;;;;2.07;1.40;;;9.20;1.00;;;;;;4932450;29;20208;-59
2021/12/01 03:14:08;;;;;;;1.80;1.70;;;9.20;1.00;;;;;;4941315;29;20274;-59
2021/12/01 03:16:36;;;;;;;1.87;1.77;;;9.10;1.00;;;;;;4939532;29;20226;-60
2021/12/01 03:19:03;;;;;;;2.10;1.90;;;9.10;1.00;;;;;;4942175;29;20594;-60
2021/12/01 03:21:30;;;;;;;1.73;1.57;;;9.10;1.00;;;;;;4942358;29;20671;-60
2021/12/01 03:23:57;;;;;;;1.80;1.70;;;9.10;1.00;;;;;;4939168;29;20215;-60
2021/12/01 03:26:24;;;;;;;3.13;1.80;;;9.10;1.00;;;;;;4940873;28;20214;-60
2021/12/01 03:28:52;;;;;;;4.57;2.10;;;9.10;1.00;;;;;;4932171;29;20212;-60
2021/12/01 03:31:19;;;;;;;1.97;1.77;;;9.10;1.00;;;;;;4912336;29;20643;-60
2021/12/01 03:33:46;;;;;;;2.33;2.10;;;9.10;1.00;;;;;;4939000;29;20199;-60
2021/12/01 03:36:13;;;;;;;2.10;1.90;;;9.10;1.00;;;;;;4942518;29;20229;-60
2021/12/01 03:38:40;;;;;;;3.30;2.33;;;9.10;1.00;;;;;;4939995;29;20731;-60
2021/12/01 03:41:07;;;;;;;2.40;2.20;;;9.10;1.00;;;;;;4941141;29;20325;-60
2021/12/01 03:43:34;;;;;;;2.70;2.50;;;9.00;1.00;;;;;;4931394;29;20957;-59
2021/12/01 03:46:01;;;;;;;3.53;2.90;;;9.00;1.00;;;;;;4923862;29;20278;-59
2021/12/01 03:48:29;;;;;;;3.77;3.00;;;8.90;1.00;;;;;;4928386;29;20208;-60
2021/12/01 03:50:56;;;;;;;4.27;2.97;;;8.90;64.10;;;;;;4924993;29;20695;-60
2021/12/01 03:53:24;;;;;;;4.27;3.87;;;8.80;99.90;;;;;;4940981;29;20187;-60
2021/12/01 03:55:51;;;;;;;4.97;3.73;;;8.80;99.90;;;;;;4939492;29;20259;-62
2021/12/01 03:58:19;;;;;;;5.73;4.20;;;8.70;99.90;;;;;;4924123;29;20278;-60
2021/12/01 04:00:46;;;;;;;4.33;3.93;;;8.70;99.90;;;;;;4939368;29;20806;-61
2021/12/01 04:03:13;;;;;;;6.30;4.80;;;8.70;99.90;;;;;;4940682;29;20568;-60
2021/12/01 04:05:41;;;;;;;5.20;4.70;;;8.70;99.90;;;;;;4927431;29;20203;-61
2021/12/01 04:08:09;;;;;;;5.00;4.50;;;8.60;99.90;;;;;;4941022;29;20208;-61
2021/12/01 04:10:36;;;;;;;5.10;4.60;;;8.60;99.90;;;;;;4939079;28;20219;-61
2021/12/01 04:13:03;;;;;;;7.80;4.97;;;8.60;99.90;;;;;;4924832;29;20215;-61
2021/12/01 04:15:30;;;;;;;5.03;4.50;;;8.60;99.90;;;;;;4939820;29;20223;-61
2021/12/01 04:17:57;;;;;;;6.07;5.47;;;8.60;99.90;;;;;;4940845;29;20636;-61
2021/12/01 04:20:25;;;;;;;7.60;5.90;;;8.60;99.90;;;;;;4926740;29;20683;-61
2021/12/01 04:22:53;;;;;;;5.63;5.07;;;8.60;99.90;;;;;;4940360;29;20219;-61
2021/12/01 04:25:20;;;;;;;6.00;4.80;;;8.60;98.70;;;;;;4939166;29;20195;-61
2021/12/01 04:27:47;;;;;;;4.93;4.47;;;8.60;4.60;;;;;;4942789;28;20195;-60
2021/12/01 04:30:21;;;;;;;6.77;4.80;;;8.60;1.70;;;;;;4939967;29;20190;-61
2021/12/01 04:32:49;;;;;;;5.13;4.33;;;8.60;1.00;;;;;;4916707;29;20279;-61
2021/12/01 04:35:17;;;;;;;3.60;3.30;;;8.60;1.00;;;;;;4922177;29;20211;-60
2021/12/01 04:37:46;;;;;;;3.80;3.40;;;8.70;1.00;;;;;;4924855;29;20282;-60
2021/12/01 04:40:14;;;;;;;4.93;3.93;;;8.60;1.00;;;;;;4938080;29;20774;-60
2021/12/01 04:42:41;;;;;;;3.53;3.23;;;8.60;1.00;;;;;;4929203;29;20212;-60
2021/12/01 04:45:14;;;;;;;3.63;3.33;;;8.60;1.00;;;;;;4935083;29;20199;-60
2021/12/01 04:47:43;;;;;;;4.07;3.67;;;8.60;1.00;;;;;;4931616;29;20194;-60
2021/12/01 04:50:11;;;;;;;3.80;3.00;;;8.60;1.00;;;;;;4939241;29;20226;-60
2021/12/01 04:52:39;;;;;;;3.67;3.10;;;8.60;1.00;;;;;;4939993;29;20289;-60
2021/12/01 04:55:07;;;;;;;4.13;3.77;;;8.60;99.90;;;;;;4939338;29;20593;-60
2021/12/01 04:57:34;;;;;;;3.93;3.30;;;8.60;1.00;;;;;;4939536;29;20201;-60
2021/12/01 05:00:02;;;;;;;3.60;2.83;;;8.60;1.00;;;;;;4938965;29;20481;-60
2021/12/01 05:02:29;;;;;;;2.60;2.40;;;8.60;1.00;;;;;;4939509;29;20871;-60
2021/12/01 05:04:56;;;;;;;3.60;2.80;;;8.50;1.00;;;;;;4921514;29;20605;-60
2021/12/01 05:07:23;;;;;;;3.83;2.90;;;8.50;1.00;;;;;;4927718;29;20242;-60
2021/12/01 05:09:50;;;;;;;3.67;3.23;;;8.40;1.00;;;;;;4912561;29;20226;-60
2021/12/01 05:12:17;;;;;;;7.07;5.30;;;8.40;1.00;;;;;;4939433;29;20195;-60
2021/12/01 05:14:44;;;;;;;2.47;2.27;;;8.40;1.00;;;;;;4938412;29;20659;-60
2021/12/01 05:17:11;;;;;;;2.70;2.50;;;8.30;1.00;;;;;;4922645;29;20203;-60
2021/12/01 05:19:38;;;;;;;3.03;2.27;;;8.30;1.00;;;;;;4924285;29;20610;-60
2021/12/01 05:22:06;;;;;;;2.30;2.10;;;8.30;1.00;;;;;;4924836;29;20207;-61
2021/12/01 05:24:33;;;;;;;2.97;2.50;;;8.30;1.00;;;;;;4926199;29;20250;-61
2021/12/01 05:27:00;;;;;;;6.47;2.00;;;8.30;99.90;;;;;;4939955;28;20226;-61
2021/12/01 05:29:27;;;;;;;2.00;1.73;;;8.30;99.90;;;;;;4921869;29;20204;-61
2021/12/01 05:31:57;;;;;;;2.90;2.60;;;8.30;99.90;;;;;;4924520;29;20206;-61
2021/12/01 05:34:24;;;;;;;2.30;2.10;;;8.30;99.90;;;;;;4924472;29;21134;-61
2021/12/01 05:36:52;;;;;;;2.27;2.07;;;8.30;99.90;;;;;;4923276;29;20254;-61
2021/12/01 05:39:19;;;;;;;2.37;2.17;;;8.30;99.90;;;;;;4939505;29;20199;-61
2021/12/01 05:41:46;;;;;;;2.63;2.33;;;8.40;99.90;;;;;;4921863;29;20607;-61
2021/12/01 05:44:13;;;;;;;3.07;2.50;;;8.40;99.90;;;;;;4924123;29;20270;-61
2021/12/01 05:46:40;;;;;;;4.50;2.60;;;8.40;81.10;;;;;;4912012;29;20210;-60
2021/12/01 05:49:07;;;;;;;3.60;3.30;;;8.40;56.60;;;;;;4935979;29;20261;-61
2021/12/01 05:51:34;;;;;;;3.30;2.50;;;8.40;99.90;;;;;;4920779;29;20254;-61
2021/12/01 05:54:01;;;;;;;3.93;3.20;;;8.30;22.20;;;;;;4919647;28;20717;-60
2021/12/01 05:56:30;;;;;;;5.07;2.70;;;8.30;99.90;;;;;;4935818;28;20254;-60
2021/12/01 05:58:57;;;;;;;3.57;3.17;;;8.30;1.00;;;;;;4938010;28;20208;-60
2021/12/01 06:01:24;;;;;;;4.07;3.20;;;8.40;1.00;;;;;;4923435;29;20203;-60
2021/12/01 06:03:51;;;;;;;4.00;2.30;;;8.40;1.00;;;;;;4933000;28;20287;-60
2021/12/01 06:06:18;;;;;;;3.13;2.70;;;8.40;1.00;;;;;;4937487;28;20290;-60
2021/12/01 06:08:45;;;;;;;3.60;3.10;;;8.40;1.00;;;;;;4936715;29;20223;-60
2021/12/01 06:11:13;;;;;;;2.80;2.60;;;8.40;1.00;;;;;;4937325;29;20199;-60
2021/12/01 06:13:41;;;;;;;3.27;2.60;;;8.40;1.00;;;;;;4919702;29;20226;-60
2021/12/01 06:16:08;;;;;;;3.10;2.80;;;8.40;1.00;;;;;;4926769;29;20869;-60
2021/12/01 06:18:35;;;;;;;3.10;2.50;;;8.40;1.00;;;;;;4935973;29;20191;-60
2021/12/01 06:21:03;;;;;;;3.30;3.00;;;8.40;1.00;;;;;;4921806;29;20207;-60
2021/12/01 06:23:30;;;;;;;3.70;3.27;;;8.40;1.00;;;;;;4937116;29;20227;-60
2021/12/01 06:25:57;;;;;;;3.37;2.77;;;8.40;1.00;;;;;;4922349;29;20199;-60
2021/12/01 06:28:24;;;;;;;4.83;2.50;;;8.50;1.00;;;;;;4923706;29;20290;-61
2021/12/01 06:30:51;;;;;;;3.00;2.70;;;8.50;1.00;;;;;;4923551;29;20245;-61
2021/12/01 06:33:22;;;;;;;2.67;2.47;;;8.50;1.00;;;;;;4941279;28;20203;-61
2021/12/01 06:35:51;;;;;;;2.97;2.53;;;8.50;99.90;;;;;;4943864;29;20564;-61
2021/12/01 06:38:19;;;;;;;4.40;2.60;;;8.50;1.00;;;;;;4931780;29;20504;-60
2021/12/01 06:40:48;;;;;;;2.90;2.30;;;8.50;99.90;;;;;;4940699;29;20202;-60
2021/12/01 06:43:16;;;;;;;3.57;2.70;;;8.50;99.90;;;;;;4942538;29;20301;-60
2021/12/01 06:45:45;;;;;;;3.40;2.20;;;8.50;99.90;;;;;;4941226;29;20226;-60
2021/12/01 06:48:12;;;;;;;3.57;2.63;;;8.50;1.00;;;;;;4941234;29;20607;-60
2021/12/01 06:50:39;;;;;;;2.77;2.47;;;8.50;99.90;;;;;;4927683;29;20203;-60
2021/12/01 06:53:06;;;;;;;3.40;2.40;;;8.40;99.90;;;;;;4939443;29;20211;-60
2021/12/01 06:55:33;;;;;;;4.67;2.60;;;8.40;1.00;;;;;;4930294;29;20616;-60
2021/12/01 06:58:00;;;;;;;2.43;2.10;;;8.40;1.00;;;;;;4941488;29;20295;-61
2021/12/01 07:00:27;;;;;;;3.03;2.20;;;8.40;99.90;;;;;;4940976;29;20203;-61
2021/12/01 07:02:55;;;;;;;3.57;2.00;;;8.40;99.90;;;;;;4924752;29;20547;-60
2021/12/01 07:05:22;;;;;;;2.93;2.20;;;8.50;99.90;;;;;;4941347;29;20234;-60
2021/12/01 07:07:49;;;;;;;2.97;2.23;;;8.50;99.90;;;;;;4918739;29;20203;-60
2021/12/01 07:10:16;;;;;;;2.50;2.30;;;8.50;99.90;;;;;;4935408;28;20227;-60
2021/12/01 07:12:43;;;;;;;4.87;2.13;;;8.50;99.90;;;;;;4938351;29;20203;-61
2021/12/01 07:15:11;;;;;;;1.93;1.60;;;8.50;99.90;;;;;;4933011;28;20254;-61
2021/12/01 07:17:39;;;;;;;2.00;1.80;;;8.50;99.90;;;;;;4939411;28;20199;-61
2021/12/01 07:20:07;;;;;;;3.03;1.43;;;8.60;99.90;;;;;;4939790;29;20820;-60
2021/12/01 07:22:34;;;;;;;1.87;1.73;;;8.60;99.90;;;;;;4923882;29;20210;-60
2021/12/01 07:25:03;;;;;;;1.90;1.70;;;8.60;99.90;;;;;;4922461;29;20627;-60
2021/12/01 07:27:30;;;;;;;1.70;1.60;;;8.60;99.90;;;;;;4937838;28;20199;-60
2021/12/01 07:29:57;;;;;;;2.03;1.73;;;8.60;99.90;;;;;;4937815;29;20195;-60
2021/12/01 07:32:24;;;;;;;1.60;1.50;;;8.60;99.90;;;;;;4938920;29;20663;-60
2021/12/01 07:34:51;;;;;;;1.50;1.40;;;8.60;99.90;;;;;;4937205;29;20234;-60
2021/12/01 07:37:19;;;;;;;1.40;1.30;;;8.60;99.90;;;;;;4923782;29;20275;-60
2021/12/01 07:39:46;;;;;;;2.17;1.80;;;8.60;99.90;;;;;;4938079;28;21292;-60
2021/12/01 07:42:14;;;;;;;1.60;1.50;;;8.60;99.90;;;;;;4923652;29;20539;-60
2021/12/01 07:44:41;;;;;;;1.60;1.33;;;8.50;99.90;;;;;;4938715;28;20229;-60
2021/12/01 07:47:09;;;;;;;2.33;1.47;;;8.50;99.90;;;;;;4923584;29;20258;-60
2021/12/01 07:49:36;;;;;;;2.20;1.50;;;8.50;99.90;;;;;;4934301;29;20254;-60
2021/12/01 07:52:07;;;;;;;1.40;1.30;;;8.50;99.90;;;;;;4922964;29;20200;-60
2021/12/01 07:54:35;;;;;;;1.47;1.30;;;8.50;99.90;;;;;;4923589;29;20199;-60
2021/12/01 07:57:02;;;;;;;1.20;1.10;;;8.50;1.00;;;;;;4938189;29;20287;-59
2021/12/01 07:59:30;;;;;;;1.53;1.13;;;8.50;99.90;;;;;;4939981;29;20207;-60
2021/12/01 08:01:57;;;;;;;1.10;1.00;;;8.40;99.90;;;;;;4937803;29;20733;-60
2021/12/01 08:04:25;;;;;;;1.60;1.10;;;8.50;99.90;;;;;;4937517;29;20242;-60
2021/12/01 08:06:54;;;;;;;0.87;0.87;;;8.40;1.00;;;;;;4923319;29;20958;-61
2021/12/01 08:09:21;;;;;;;1.13;1.03;;;8.40;1.00;;;;;;4924176;29;20258;-60
2021/12/01 08:11:49;;;;;;;1.47;1.10;;;8.40;1.00;;;;;;4939291;29;20255;-60
2021/12/01 08:14:16;;;;;;;0.90;0.90;;;8.40;1.00;;;;;;4930126;29;20210;-60
2021/12/01 08:16:43;;;;;;;2.27;0.87;;;8.40;1.00;;;;;;4939072;29;20262;-60
2021/12/01 08:19:10;;;;;;;2.53;1.00;;;8.40;1.00;;;;;;4939357;29;20226;-61
2021/12/01 08:21:37;;;;;;;1.37;1.03;;;8.40;1.00;;;;;;4941427;29;20228;-60
2021/12/01 08:24:10;;;;;;;1.00;1.00;;;8.40;1.00;;;;;;4940445;29;20203;-60
2021/12/01 08:26:38;;;;;;;1.00;0.90;;;8.40;1.00;;;;;;4938667;28;20207;-60
2021/12/01 08:29:05;;;;;;;2.13;0.90;;;8.40;1.00;;;;;;4935847;28;20196;-60
2021/12/01 08:31:33;;;;;;;0.93;0.93;;;8.40;1.00;;;;;;4940157;29;20226;-60
2021/12/01 08:34:00;;;;;;;0.90;0.90;;;8.30;1.00;;;;;;4934471;28;20203;-60
2021/12/01 08:36:27;;;;;;;1.80;1.00;;;8.20;1.00;;;;;;4938446;29;20233;-60
2021/12/01 08:38:54;;;;;;;1.10;1.00;;;8.20;52.00;;;;;;4938320;29;20230;-60
2021/12/01 08:41:21;;;;;;;1.00;0.90;;;8.20;99.90;;;;;;4934896;29;20674;-60
2021/12/01 08:43:49;;;;;;;1.40;1.00;;;8.10;99.90;;;;;;4933756;28;20254;-60
2021/12/01 08:46:16;;;;;;;1.17;0.93;;;8.10;99.90;;;;;;4937018;29;20207;-60
2021/12/01 08:48:43;;;;;;;0.90;0.90;;;8.10;99.90;;;;;;4937088;29;20222;-60
2021/12/01 08:51:10;;;;;;;1.90;1.10;;;8.10;99.90;;;;;;4913208;29;20278;-60
2021/12/01 08:53:42;;;;;;;1.00;0.90;;;8.10;99.90;;;;;;4925281;29;20338;-60
2021/12/01 08:56:11;;;;;;;1.27;1.17;;;8.20;99.90;;;;;;4918761;29;20199;-60
2021/12/01 08:58:38;;;;;;;1.60;1.10;;;8.20;64.30;;;;;;4935073;28;20198;-60
2021/12/01 09:01:05;;;;;;;1.10;1.00;;;8.30;46.50;;;;;;4931225;28;20206;-60
2021/12/01 09:03:33;;;;;;;1.43;1.10;;;8.30;12.10;;;;;;4927498;28;20250;-60
2021/12/01 09:06:00;;;;;;;2.07;0.97;;;8.30;1.00;;;;;;4932362;28;20704;-60
2021/12/01 09:08:27;;;;;;;1.30;1.00;;;8.40;1.00;;;;;;4917084;28;20289;-60
2021/12/01 09:11:00;;;;;;;1.13;1.03;;;8.40;1.00;;;;;;4950045;28;20287;-60
2021/12/01 09:13:28;;;;;;;0.93;0.80;;;8.40;1.00;;;;;;4948994;28;20194;-60
2021/12/01 09:15:56;;;;;;;1.47;1.07;;;8.40;1.00;;;;;;4932882;28;20199;-60
2021/12/01 09:18:25;;;;;;;0.80;0.80;;;8.40;96.30;;;;;;4923499;28;20242;-60
2021/12/01 09:20:52;;;;;;;1.00;0.90;;;8.40;1.00;;;;;;4930201;28;20214;-60
2021/12/01 09:23:20;;;;;;;1.53;1.00;;;8.40;1.00;;;;;;4947939;28;21135;-60
2021/12/01 09:25:47;;;;;;;2.00;1.03;;;8.50;1.00;;;;;;4950490;28;20713;-61
2021/12/01 09:28:16;;;;;;;3.50;1.83;;;8.70;1.00;;;;;;4948908;28;20281;-61
2021/12/01 09:30:44;;;;;;;1.67;1.57;;;8.70;1.00;;;;;;4950243;28;21494;-61
2021/12/01 09:33:13;;;;;;;5.97;4.40;;;8.80;1.00;;;;;;4931390;28;20253;-60
2021/12/01 09:35:40;;;;;;;1.30;1.10;;;8.80;1.00;;;;;;4931497;28;20214;-60
2021/12/01 09:38:08;;;;;;;1.43;0.90;;;8.70;1.00;;;;;;4946283;28;20190;-60
2021/12/01 09:40:35;;;;;;;1.43;0.73;;;8.70;2.10;;;;;;4944162;28;20218;-60
2021/12/01 09:43:02;;;;;;;0.70;0.70;;;8.60;99.90;;;;;;4932331;28;20295;-60
2021/12/01 09:45:30;;;;;;;1.00;0.90;;;8.60;99.90;;;;;;4949267;28;20249;-60
2021/12/01 09:47:57;;;;;;;1.37;1.03;;;8.50;99.90;;;;;;4934314;28;20206;-60
2021/12/01 09:50:25;;;;;;;1.53;0.83;;;8.50;99.90;;;;;;4948162;28;20253;-60
2021/12/01 09:52:52;;;;;;;1.60;0.93;;;8.50;99.90;;;;;;4945001;28;20686;-60
2021/12/01 09:55:20;;;;;;;1.23;1.00;;;8.50;99.90;;;;;;4946117;28;20724;-60
2021/12/01 09:58:17;;;;;;;1.50;1.30;;;8.50;99.90;;;;;;4947763;28;20206;-60
2021/12/01 10:00:51;;;;;;;2.67;0.87;;;8.60;99.90;;;;;;4945572;28;20223;-60
2021/12/01 10:03:18;;;;;;;0.87;0.87;;;8.60;99.90;;;;;;4931390;28;20737;-60
2021/12/01 10:05:50;;;;;;;1.17;0.90;;;8.60;99.90;;;;;;4931423;28;20826;-60
2021/12/01 10:08:28;;;;;;;1.60;0.70;;;8.70;96.10;;;;;;4933586;28;20214;-60
2021/12/01 10:10:57;;;;;;;1.37;1.07;;;8.70;1.00;;;;;;4954329;28;20218;-60
2021/12/01 10:13:30;;;;;;;3.07;0.90;;;8.70;1.00;;;;;;4952318;28;20310;-61
2021/12/01 10:16:01;;;;;;;1.43;0.80;;;8.70;1.00;;;;;;4952086;28;20202;-61
2021/12/01 10:18:34;;;;;;;3.23;1.13;;;8.70;1.00;;;;;;4951866;28;20293;-60
2021/12/01 10:21:06;;;;;;;2.30;0.77;;;8.70;27.90;;;;;;4933806;28;20215;-61
2021/12/01 10:23:35;;;;;;;0.93;0.83;;;8.80;21.10;;;;;;4939568;28;20290;-59
2021/12/01 10:26:14;;;;;;;0.60;0.60;;;8.80;93.90;;;;;;4951986;28;20304;-59
2021/12/01 10:28:51;;;;;;;0.60;0.60;;;8.90;1.00;;;;;;4952515;28;20530;-59
2021/12/01 10:31:42;;;;;;;0.70;0.70;;;8.80;1.00;;;;;;4922398;28;20221;-60
2021/12/01 10:34:18;;;;;;;0.80;0.80;;;8.90;1.00;;;;;;4935309;28;20740;-60
2021/12/01 10:36:47;;;;;;;0.90;0.80;;;8.90;1.00;;;;;;4952149;28;20265;-60
2021/12/01 10:39:14;;;;;;;1.93;0.73;;;8.90;1.00;;;;;;4953309;28;20202;-60
2021/12/01 10:41:43;;;;;;;0.70;0.70;;;8.90;1.00;;;;;;4950423;28;20294;-59
2021/12/01 10:44:12;;;;;;;0.70;0.70;;;8.80;1.00;;;;;;4930577;28;20220;-60
2021/12/01 10:46:47;;;;;;;3.93;0.80;;;8.90;65.90;;;;;;4933120;28;20255;-59
2021/12/01 10:49:15;;;;;;;1.63;0.90;;;8.90;6.70;;;;;;4951216;28;20220;-60
2021/12/01 10:51:43;;;;;;;1.60;0.93;;;8.90;99.90;;;;;;4930898;28;20199;-60
2021/12/01 10:54:19;;;;;;;0.80;0.80;;;8.90;99.90;;;;;;4930834;28;20645;-59
2021/12/01 10:57:07;;;;;;;1.50;0.90;;;8.90;99.90;;;;;;4945451;28;20194;-59
2021/12/01 10:59:44;;;;;;;0.87;0.87;;;8.90;99.90;;;;;;4947529;28;20282;-60
2021/12/01 11:02:12;;;;;;;3.47;1.33;;;8.80;1.00;;;;;;4932876;28;20197;-59
2021/12/01 11:04:51;;;;;;;1.57;1.00;;;8.80;1.00;;;;;;4927124;28;20247;-60
2021/12/01 11:07:25;;;;;;;1.20;1.10;;;8.80;1.00;;;;;;4928694;28;20322;-59
2021/12/01 11:10:19;;;;;;;1.50;1.20;;;8.80;1.00;;;;;;4944383;28;20278;-59
2021/12/01 11:12:57;;;;;;;2.13;1.00;;;8.80;32.20;;;;;;4930642;28;20234;-59
2021/12/01 11:15:31;;;;;;;1.10;1.00;;;8.80;99.90;;;;;;4948791;28;20199;-59
2021/12/01 11:18:23;;;;;;;2.33;1.40;;;8.90;99.90;;;;;;4946141;28;20217;-60
2021/12/01 11:21:17;;;;;;;3.07;1.50;;;8.90;99.90;;;;;;4947385;28;20215;-59
2021/12/01 11:23:49;;;;;;;1.53;1.20;;;8.90;99.90;;;;;;4942914;28;20191;-59
2021/12/01 11:26:20;;;;;;;2.10;1.80;;;8.80;99.90;;;;;;4912833;28;20698;-60
2021/12/01 11:28:52;;;;;;;3.03;1.63;;;8.80;1.00;;;;;;4942616;28;20242;-60
2021/12/01 11:31:21;;;;;;;1.67;1.50;;;8.80;1.00;;;;;;4947117;28;23071;-59
2021/12/01 11:33:52;;;;;;;3.10;2.20;;;8.90;1.00;;;;;;4946399;28;20261;-61
2021/12/01 11:36:23;;;;;;;1.70;1.60;;;8.90;99.90;;;;;;4953809;28;20285;-60
2021/12/01 11:39:04;;;;;;;1.70;1.00;;;8.90;99.90;;;;;;4948260;28;20200;-59
2021/12/01 11:41:33;;;;;;;2.33;1.20;;;8.90;99.90;;;;;;4921149;28;20305;-59
2021/12/01 11:44:03;;;;;;;3.60;2.30;;;8.90;99.90;;;;;;4925665;28;20269;-59
2021/12/01 11:46:32;;;;;;;1.10;1.00;;;8.90;99.90;;;;;;4943763;28;20669;-61
2021/12/01 11:49:04;;;;;;;1.17;1.00;;;9.00;99.90;;;;;;4944454;28;20206;-60
2021/12/01 11:51:33;;;;;;;2.13;1.00;;;9.00;1.00;;;;;;4950944;28;20277;-60
2021/12/01 11:54:16;;;;;;;3.00;2.70;;;9.00;1.00;;;;;;4931680;28;20679;-60
2021/12/01 11:56:55;;;;;;;2.27;1.80;;;9.00;1.00;;;;;;4935760;28;20192;-60
2021/12/01 11:59:27;;;;;;;3.13;1.87;;;9.10;1.00;;;;;;4942789;28;20218;-60
2021/12/01 12:02:04;;;;;;;4.67;2.63;;;9.00;1.00;;;;;;4944109;28;20214;-60
2021/12/01 12:04:42;;;;;;;4.00;1.60;;;9.00;1.00;;;;;;4948455;28;20234;-61
2021/12/01 12:07:11;;;;;;;1.47;1.17;;;9.00;1.00;;;;;;4943557;28;20198;-61
2021/12/01 12:10:14;;;;;;;4.07;1.77;;;9.10;1.00;;;;;;4948242;28;20277;-60
2021/12/01 12:12:58;;;;;;;1.47;0.97;;;9.10;99.90;;;;;;4948308;28;20198;-60
2021/12/01 12:15:41;;;;;;;1.10;1.00;;;9.00;99.90;;;;;;4945089;28;20199;-60
2021/12/01 12:18:12;;;;;;;1.93;1.23;;;9.00;1.00;;;;;;4932474;28;20224;-60
2021/12/01 12:20:46;;;;;;;2.83;1.27;;;8.80;1.00;;;;;;4946740;28;20628;-60
2021/12/01 12:23:15;;;;;;;2.57;1.40;;;8.80;99.90;;;;;;4945710;28;20219;-60
2021/12/01 12:25:56;;;;;;;1.93;1.50;;;8.70;1.00;;;;;;4929598;28;20361;-60
2021/12/01 12:28:43;;;;;;;1.40;1.30;;;8.70;99.90;;;;;;4950620;28;20689;-60
2021/12/01 12:31:19;;;;;;;1.50;1.40;;;8.70;1.00;;;;;;4949516;28;21414;-60
2021/12/01 12:34:09;;;;;;;2.07;1.40;;;8.80;1.00;;;;;;4947833;28;20219;-59
2021/12/01 12:36:59;;;;;;;3.67;1.53;;;8.80;99.90;;;;;;4939801;28;20203;-59
2021/12/01 12:39:29;;;;;;;4.60;1.27;;;8.90;1.00;;;;;;4937527;28;20266;-59
2021/12/01 12:41:57;;;;;;;2.17;1.50;;;8.90;1.00;;;;;;4940933;28;20748;-60
2021/12/01 12:44:33;;;;;;;2.33;1.30;;;8.90;1.00;;;;;;4936250;28;20252;-60
2021/12/01 12:47:47;;;;;;;2.23;1.77;;;8.80;1.00;;;;;;4943333;28;20199;-61
2021/12/01 12:50:14;;;;;;;6.00;1.87;;;8.70;1.00;;;;;;4925979;28;20200;-60
2021/12/01 12:53:03;;;;;;;2.13;1.90;;;8.70;1.00;;;;;;4946121;28;20203;-60
2021/12/01 12:55:30;;;;;;;2.97;2.43;;;8.60;1.00;;;;;;4930496;28;20246;-61
2021/12/01 12:58:07;;;;;;;2.17;1.97;;;8.60;1.00;;;;;;4942295;28;20313;-61
2021/12/01 13:00:36;;;;;;;3.80;2.10;;;8.70;1.00;;;;;;4932191;28;20666;-60
2021/12/01 13:03:19;;;;;;;2.90;2.20;;;8.70;1.00;;;;;;4916821;28;20204;-62
2021/12/01 13:05:56;;;;;;;3.60;2.20;;;8.70;1.00;;;;;;4935021;28;20227;-61
2021/12/01 13:08:39;;;;;;;6.93;3.00;;;8.80;99.90;;;;;;4931724;28;20298;-60
2021/12/01 13:11:17;;;;;;;4.67;2.20;;;8.80;99.90;;;;;;4951566;28;20227;-60
2021/12/01 13:13:54;;;;;;;6.20;2.60;;;8.80;99.90;;;;;;4937869;28;20693;-60
2021/12/01 13:16:21;;;;;;;3.73;2.60;;;8.90;99.90;;;;;;4949273;28;20305;-61
2021/12/01 13:18:50;;;;;;;4.23;2.47;;;8.90;99.90;;;;;;4952284;28;20209;-60
2021/12/01 13:21:20;;;;;;;5.27;2.40;;;8.90;99.90;;;;;;4951698;28;20206;-61